Time;durP1;ratioP1;P1;durP2;ratioP2;P2;SDS_P1;SDS_P2;PMS_P1;PMS_P2;Temp;Humidity;BMP_temperature;BMP_pressure;BME280_temperature;BME280_humidity;BME280_pressure;Samples;Min_cycle;Max_cycle;Signal;HPM_P1;HPM_P2
2021/11/20 00:00:55;;;;;;;13.35;10.27;;;;;;;;;;2083277;28;20687;-59
2021/11/20 00:01:56;;;;;;;12.00;10.75;;;;;;;;;;2081679;28;20168;-62
2021/11/20 00:02:57;;;;;;;13.50;10.07;;;;;;;;;;2079923;28;20517;-62
2021/11/20 00:03:57;;;;;;;15.13;10.23;;;;;;;;;;2082694;28;20175;-66
2021/11/20 00:04:58;;;;;;;12.13;10.80;;;;;;;;;;2082133;28;20165;-64
2021/11/20 00:05:59;;;;;;;14.52;9.82;;;;;;;;;;2096454;23;20211;-57
2021/11/20 00:07:00;;;;;;;10.57;9.57;;;;;;;;;;2083810;28;20351;-54
2021/11/20 00:08:01;;;;;;;11.43;9.93;;;;;;;;;;2090983;28;20185;-59
2021/11/20 00:09:02;;;;;;;14.05;9.90;;;;;;;;;;2088445;28;20180;-57
2021/11/20 00:10:05;;;;;;;11.73;10.27;;;;;;;;;;2089829;28;20275;-57
2021/11/20 00:11:10;;;;;;;17.58;9.45;;;;;;;;;;2089653;28;20773;-59
2021/11/20 00:12:14;;;;;;;10.77;9.65;;;;;;;;;;2089996;28;20551;-57
2021/11/20 00:13:15;;;;;;;11.05;9.25;;;;;;;;;;2090300;28;20188;-57
2021/11/20 00:14:17;;;;;;;14.35;10.10;;;;;;;;;;2090377;28;20221;-53
2021/11/20 00:15:19;;;;;;;13.20;9.80;;;;;;;;;;2089950;28;20179;-55
2021/11/20 00:16:22;;;;;;;12.52;10.20;;;;;;;;;;2089007;28;20273;-56
2021/11/20 00:17:23;;;;;;;11.73;10.35;;;;;;;;;;2082236;28;20229;-56
2021/11/20 00:18:24;;;;;;;9.32;8.43;;;;;;;;;;2082207;28;20191;-55
2021/11/20 00:19:25;;;;;;;11.18;10.07;;;;;;;;;;2081148;28;20792;-58
2021/11/20 00:20:26;;;;;;;10.38;9.23;;;;;;;;;;2082562;28;20224;-56
2021/11/20 00:21:29;;;;;;;16.25;11.27;;;;;;;;;;2081279;28;20644;-58
2021/11/20 00:22:31;;;;;;;12.50;10.43;;;;;;;;;;2081930;28;20280;-58
2021/11/20 00:23:34;;;;;;;13.18;10.65;;;;;;;;;;2086093;28;20587;-58
2021/11/20 00:24:36;;;;;;;12.50;10.38;;;;;;;;;;2077966;28;20531;-59
2021/11/20 00:25:48;;;;;;;13.25;9.20;;;;;;;;;;2081646;28;20556;-58
2021/11/20 00:26:48;;;;;;;12.50;10.45;;;;;;;;;;2083716;28;20168;-55
2021/11/20 00:27:50;;;;;;;11.57;9.75;;;;;;;;;;2084635;28;20202;-53
2021/11/20 00:30:03;;;;;;;11.23;9.82;;;;;;;;;;2094125;28;20179;-55
2021/11/20 00:31:06;;;;;;;13.35;10.48;;;;;;;;;;2082102;28;20742;-56
2021/11/20 00:32:10;;;;;;;12.63;9.98;;;;;;;;;;2084752;28;20723;-53
2021/11/20 00:33:10;;;;;;;13.27;9.65;;;;;;;;;;2080987;28;20290;-56
2021/11/20 00:34:13;;;;;;;15.85;10.80;;;;;;;;;;2085234;28;20169;-53
2021/11/20 00:35:15;;;;;;;14.55;10.50;;;;;;;;;;2079643;28;20633;-59
2021/11/20 00:36:16;;;;;;;19.10;10.55;;;;;;;;;;2074907;28;20224;-55
2021/11/20 00:37:16;;;;;;;14.20;10.00;;;;;;;;;;2088963;28;20577;-56
2021/11/20 00:38:16;;;;;;;11.13;9.25;;;;;;;;;;2084831;28;20613;-53
2021/11/20 00:39:19;;;;;;;12.55;10.93;;;;;;;;;;2080608;28;20191;-57
2021/11/20 00:40:24;;;;;;;13.90;10.88;;;;;;;;;;2083067;28;20173;-51
2021/11/20 00:41:26;;;;;;;13.52;10.30;;;;;;;;;;2080188;28;20222;-54
2021/11/20 00:42:27;;;;;;;16.92;10.65;;;;;;;;;;2077137;28;20169;-56
2021/11/20 00:43:27;;;;;;;14.13;12.02;;;;;;;;;;2079131;28;20208;-55
2021/11/20 00:44:28;;;;;;;12.70;11.30;;;;;;;;;;2082841;28;20242;-54
2021/11/20 00:45:29;;;;;;;14.25;11.75;;;;;;;;;;2086217;28;20202;-58
2021/11/20 00:46:32;;;;;;;15.43;11.27;;;;;;;;;;2082874;28;20587;-56
2021/11/20 00:47:33;;;;;;;17.88;11.73;;;;;;;;;;2087801;28;20175;-55
2021/11/20 00:48:33;;;;;;;14.65;11.90;;;;;;;;;;2082885;28;20203;-56
2021/11/20 00:49:34;;;;;;;16.10;11.70;;;;;;;;;;2088001;28;20184;-55
2021/11/20 00:50:35;;;;;;;12.73;11.25;;;;;;;;;;2078688;28;20183;-60
2021/11/20 00:51:36;;;;;;;12.23;10.95;;;;;;;;;;2088266;28;20179;-57
2021/11/20 00:52:37;;;;;;;13.50;10.95;;;;;;;;;;2083943;28;20192;-59
2021/11/20 00:53:37;;;;;;;13.15;11.00;;;;;;;;;;2079226;28;20228;-58
2021/11/20 00:54:39;;;;;;;14.80;10.95;;;;;;;;;;2083972;28;20251;-59
2021/11/20 00:55:40;;;;;;;15.02;11.77;;;;;;;;;;2092435;28;20164;-55
2021/11/20 00:56:42;;;;;;;16.40;11.43;;;;;;;;;;2090827;28;20184;-60
2021/11/20 00:57:43;;;;;;;15.30;11.25;;;;;;;;;;2083047;28;20627;-57
2021/11/20 00:58:44;;;;;;;13.35;11.23;;;;;;;;;;2074257;28;20256;-58
2021/11/20 00:59:44;;;;;;;14.75;11.25;;;;;;;;;;2081930;28;20278;-58
2021/11/20 01:00:46;;;;;;;13.18;11.68;;;;;;;;;;2081994;28;20222;-57
2021/11/20 01:01:52;;;;;;;15.18;11.68;;;;;;;;;;2079021;28;20172;-60
2021/11/20 01:02:52;;;;;;;13.43;12.02;;;;;;;;;;2078859;28;20176;-58
2021/11/20 01:03:53;;;;;;;14.32;12.05;;;;;;;;;;2071266;28;20165;-59
2021/11/20 01:04:53;;;;;;;15.00;12.05;;;;;;;;;;2074558;28;20177;-60
2021/11/20 01:05:54;;;;;;;19.08;12.63;;;;;;;;;;2072764;28;20260;-57
2021/11/20 01:06:56;;;;;;;18.35;12.35;;;;;;;;;;2078695;28;20180;-58
2021/11/20 01:07:56;;;;;;;19.20;12.45;;;;;;;;;;2078591;28;20680;-61
2021/11/20 01:08:57;;;;;;;15.52;12.35;;;;;;;;;;2082071;28;20237;-57
2021/11/20 01:09:58;;;;;;;16.05;12.93;;;;;;;;;;2078493;28;20195;-59
2021/11/20 01:11:07;;;;;;;15.48;12.32;;;;;;;;;;2071215;28;20252;-59
2021/11/20 01:12:12;;;;;;;15.10;13.13;;;;;;;;;;2073611;28;20260;-58
2021/11/20 01:13:13;;;;;;;20.02;13.57;;;;;;;;;;2070218;28;20192;-57
2021/11/20 01:14:15;;;;;;;20.27;14.38;;;;;;;;;;2072030;28;20200;-61
2021/11/20 01:15:18;;;;;;;16.55;12.98;;;;;;;;;;2072297;28;20195;-59
2021/11/20 01:16:21;;;;;;;18.63;13.80;;;;;;;;;;2080651;28;20195;-59
2021/11/20 01:17:25;;;;;;;15.73;13.82;;;;;;;;;;2079762;28;20176;-58
2021/11/20 01:18:26;;;;;;;18.50;13.65;;;;;;;;;;2073755;28;20217;-55
2021/11/20 01:19:35;;;;;;;20.83;13.40;;;;;;;;;;2072343;28;20727;-60
2021/11/20 01:20:39;;;;;;;16.38;13.65;;;;;;;;;;2078783;28;20755;-58
2021/11/20 01:21:40;;;;;;;17.63;13.65;;;;;;;;;;2081501;28;20665;-58
2021/11/20 01:22:40;;;;;;;18.38;14.55;;;;;;;;;;2080534;28;20172;-58
2021/11/20 01:23:56;;;;;;;19.02;14.13;;;;;;;;;;2079381;28;20167;-57
2021/11/20 01:24:57;;;;;;;19.00;13.95;;;;;;;;;;2072272;28;20695;-61
2021/11/20 01:26:10;;;;;;;20.95;13.88;;;;;;;;;;2062179;28;20273;-57
2021/11/20 01:27:16;;;;;;;16.42;13.80;;;;;;;;;;2072382;28;20216;-57
2021/11/20 01:28:20;;;;;;;18.23;14.55;;;;;;;;;;2072402;28;20748;-57
2021/11/20 01:29:28;;;;;;;17.90;14.70;;;;;;;;;;2074272;28;20181;-57
2021/11/20 01:30:32;;;;;;;19.17;14.90;;;;;;;;;;2072973;28;20570;-54
2021/11/20 01:31:33;;;;;;;18.10;15.18;;;;;;;;;;2072357;28;20264;-58
2021/11/20 01:32:35;;;;;;;21.88;17.10;;;;;;;;;;2072986;28;20169;-57
2021/11/20 01:33:36;;;;;;;20.45;15.95;;;;;;;;;;2072224;28;20179;-53
2021/11/20 01:34:38;;;;;;;20.27;15.00;;;;;;;;;;2072231;28;20188;-54
2021/11/20 01:35:39;;;;;;;20.45;16.30;;;;;;;;;;2072503;28;20172;-56
2021/11/20 01:36:46;;;;;;;20.85;14.38;;;;;;;;;;2081405;28;20302;-58
2021/11/20 01:37:46;;;;;;;22.73;15.73;;;;;;;;;;2080749;28;20202;-57
2021/11/20 01:38:47;;;;;;;19.15;15.25;;;;;;;;;;2072518;28;20910;-55
2021/11/20 01:39:59;;;;;;;18.77;15.10;;;;;;;;;;2080222;28;20234;-58
2021/11/20 01:41:04;;;;;;;25.88;15.68;;;;;;;;;;2066844;28;20176;-56
2021/11/20 01:42:19;;;;;;;21.25;15.82;;;;;;;;;;2067519;28;20177;-56
2021/11/20 01:43:38;;;;;;;23.13;17.23;;;;;;;;;;2075090;28;20173;-59
2021/11/20 01:44:38;;;;;;;21.30;15.32;;;;;;;;;;2072698;28;20173;-56
2021/11/20 01:45:45;;;;;;;24.13;16.65;;;;;;;;;;2081604;28;20168;-57
2021/11/20 01:46:52;;;;;;;19.27;15.38;;;;;;;;;;2078554;28;20269;-59
2021/11/20 01:47:55;;;;;;;21.65;16.02;;;;;;;;;;2075038;28;20182;-58
2021/11/20 01:49:10;;;;;;;25.27;17.77;;;;;;;;;;2079328;28;20169;-60
2021/11/20 01:50:13;;;;;;;24.52;16.95;;;;;;;;;;2087337;28;20571;-61
2021/11/20 01:51:16;;;;;;;22.15;16.60;;;;;;;;;;2086791;28;20198;-59
2021/11/20 01:52:35;;;;;;;20.25;17.05;;;;;;;;;;2077431;28;20176;-61
2021/11/20 01:53:41;;;;;;;22.17;16.30;;;;;;;;;;2080248;28;20217;-59
2021/11/20 01:54:50;;;;;;;23.00;17.35;;;;;;;;;;2079481;28;20173;-60
2021/11/20 01:56:14;;;;;;;23.95;16.70;;;;;;;;;;2069187;28;20177;-61
2021/11/20 01:57:26;;;;;;;26.52;17.15;;;;;;;;;;2067534;28;20196;-61
2021/11/20 01:58:34;;;;;;;26.13;18.15;;;;;;;;;;2081362;28;20188;-61
2021/11/20 01:59:48;;;;;;;23.50;17.02;;;;;;;;;;2087506;28;20188;-61
2021/11/20 02:01:22;;;;;;;21.75;17.08;;;;;;;;;;2085101;28;20188;-61
2021/11/20 02:02:37;;;;;;;22.48;17.27;;;;;;;;;;2087010;28;20172;-61
2021/11/20 02:03:59;;;;;;;28.90;17.75;;;;;;;;;;2086678;28;20333;-57
2021/11/20 02:05:20;;;;;;;23.85;17.92;;;;;;;;;;2080360;28;20177;-57
2021/11/20 02:06:37;;;;;;;24.15;16.80;;;;;;;;;;2086105;28;20208;-60
2021/11/20 02:07:54;;;;;;;27.10;18.95;;;;;;;;;;2085342;28;20180;-58
2021/11/20 02:08:57;;;;;;;33.55;19.38;;;;;;;;;;2082611;28;20160;-58
2021/11/20 02:10:04;;;;;;;24.33;17.38;;;;;;;;;;2086800;28;20175;-62
2021/11/20 02:11:27;;;;;;;23.48;18.73;;;;;;;;;;2083818;28;20203;-57
2021/11/20 02:12:33;;;;;;;29.13;18.25;;;;;;;;;;2087627;28;20180;-61
2021/11/20 02:13:38;;;;;;;23.95;18.23;;;;;;;;;;2081844;28;20243;-59
2021/11/20 02:14:43;;;;;;;25.25;18.65;;;;;;;;;;2077930;28;20176;-61
2021/11/20 02:16:07;;;;;;;24.67;19.15;;;;;;;;;;2086170;28;20172;-63
2021/11/20 02:17:10;;;;;;;26.40;18.65;;;;;;;;;;2080914;28;20843;-60
2021/11/20 02:18:18;;;;;;;28.35;20.13;;;;;;;;;;2083560;28;20179;-61
2021/11/20 02:19:24;;;;;;;27.98;17.95;;;;;;;;;;2087448;28;20667;-63
2021/11/20 02:20:34;;;;;;;24.90;19.70;;;;;;;;;;2083563;28;20192;-60
2021/11/20 02:22:04;;;;;;;27.10;19.77;;;;;;;;;;2083194;28;20169;-58
2021/11/20 02:23:06;;;;;;;25.88;18.30;;;;;;;;;;2070009;28;20188;-60
2021/11/20 02:24:07;;;;;;;25.23;19.08;;;;;;;;;;2078832;28;20669;-60
2021/11/20 02:25:21;;;;;;;28.25;20.02;;;;;;;;;;2070117;28;20221;-60
2021/11/20 02:26:27;;;;;;;27.15;20.42;;;;;;;;;;2083402;28;20192;-59
2021/11/20 02:27:33;;;;;;;26.30;19.80;;;;;;;;;;2083422;28;20255;-62
2021/11/20 02:28:39;;;;;;;26.40;19.48;;;;;;;;;;2076246;28;20408;-62
2021/11/20 02:30:08;;;;;;;26.70;19.98;;;;;;;;;;2079711;28;20227;-61
2021/11/20 02:31:16;;;;;;;29.98;21.02;;;;;;;;;;2085859;28;20202;-60
2021/11/20 02:32:18;;;;;;;31.00;20.13;;;;;;;;;;2077972;28;20177;-60
2021/11/20 02:33:28;;;;;;;31.05;21.77;;;;;;;;;;2069649;28;20660;-56
2021/11/20 02:34:33;;;;;;;32.15;22.33;;;;;;;;;;2069844;28;20273;-62
2021/11/20 02:35:45;;;;;;;28.85;21.10;;;;;;;;;;2074355;28;20181;-60
2021/11/20 02:36:46;;;;;;;27.58;19.10;;;;;;;;;;2082070;28;20207;-60
2021/11/20 02:37:47;;;;;;;31.38;22.42;;;;;;;;;;2081644;28;20180;-57
2021/11/20 02:38:48;;;;;;;29.70;21.52;;;;;;;;;;2074250;28;20645;-58
2021/11/20 02:39:48;;;;;;;29.20;21.80;;;;;;;;;;2073650;28;20193;-57
2021/11/20 02:40:49;;;;;;;32.70;22.73;;;;;;;;;;2081866;28;20188;-58
2021/11/20 02:41:51;;;;;;;29.40;21.67;;;;;;;;;;2081863;28;20247;-59
2021/11/20 02:42:52;;;;;;;35.15;22.25;;;;;;;;;;2081661;28;20311;-55
2021/11/20 02:44:05;;;;;;;35.92;22.38;;;;;;;;;;2074519;28;20631;-59
2021/11/20 02:45:14;;;;;;;32.65;22.90;;;;;;;;;;2081798;28;20179;-57
2021/11/20 02:46:17;;;;;;;29.27;22.35;;;;;;;;;;2074163;28;20311;-57
2021/11/20 02:47:36;;;;;;;33.13;22.80;;;;;;;;;;2074347;28;20569;-57
2021/11/20 02:48:36;;;;;;;32.90;22.20;;;;;;;;;;2082417;28;20561;-58
2021/11/20 02:49:37;;;;;;;31.98;21.75;;;;;;;;;;2081889;28;20187;-57
2021/11/20 02:50:53;;;;;;;29.95;22.08;;;;;;;;;;2073980;28;20594;-57
2021/11/20 02:51:57;;;;;;;32.78;22.08;;;;;;;;;;2067359;28;20188;-60
2021/11/20 02:52:57;;;;;;;32.80;23.45;;;;;;;;;;2073808;28;20177;-58
2021/11/20 02:54:00;;;;;;;30.52;22.48;;;;;;;;;;2077484;28;20200;-59
2021/11/20 02:55:01;;;;;;;30.95;22.70;;;;;;;;;;2082000;28;20229;-61
2021/11/20 02:56:03;;;;;;;33.20;23.83;;;;;;;;;;2077700;28;20176;-59
2021/11/20 02:57:09;;;;;;;37.17;23.83;;;;;;;;;;2081226;28;20176;-61
2021/11/20 02:58:10;;;;;;;37.15;24.15;;;;;;;;;;2072854;28;20173;-58
2021/11/20 02:59:10;;;;;;;34.10;25.98;;;;;;;;;;2073624;28;20200;-60
2021/11/20 03:00:16;;;;;;;37.15;22.70;;;;;;;;;;2073586;28;20668;-59
2021/11/20 03:01:24;;;;;;;32.53;23.65;;;;;;;;;;2080647;28;20180;-61
2021/11/20 03:02:25;;;;;;;39.92;24.05;;;;;;;;;;2075503;28;20188;-58
2021/11/20 03:03:27;;;;;;;35.65;22.10;;;;;;;;;;2078975;28;20589;-57
2021/11/20 03:04:27;;;;;;;36.35;24.67;;;;;;;;;;2072595;28;20598;-59
2021/11/20 03:05:27;;;;;;;33.85;25.05;;;;;;;;;;2073235;28;20180;-59
2021/11/20 03:06:28;;;;;;;33.75;24.30;;;;;;;;;;2072740;28;20236;-57
2021/11/20 03:07:29;;;;;;;38.75;26.58;;;;;;;;;;2081395;28;20176;-59
2021/11/20 03:08:30;;;;;;;37.72;26.17;;;;;;;;;;2070395;28;20272;-57
2021/11/20 03:09:37;;;;;;;37.85;24.50;;;;;;;;;;2074529;28;20168;-60
2021/11/20 03:10:44;;;;;;;34.47;24.23;;;;;;;;;;2074124;28;20177;-59
2021/11/20 03:11:45;;;;;;;34.95;25.13;;;;;;;;;;2078766;28;20179;-62
2021/11/20 03:12:46;;;;;;;35.22;25.30;;;;;;;;;;2080992;28;20172;-61
2021/11/20 03:13:50;;;;;;;37.92;26.20;;;;;;;;;;2072725;28;20188;-61
2021/11/20 03:15:04;;;;;;;36.25;25.70;;;;;;;;;;2081232;28;20237;-59
2021/11/20 03:16:12;;;;;;;33.40;24.75;;;;;;;;;;2073204;28;20200;-57
2021/11/20 03:17:13;;;;;;;33.50;24.83;;;;;;;;;;2082184;28;20256;-59
2021/11/20 03:18:13;;;;;;;34.25;26.13;;;;;;;;;;2078941;28;20220;-60
2021/11/20 03:19:14;;;;;;;40.33;26.85;;;;;;;;;;2065723;28;20189;-58
2021/11/20 03:20:15;;;;;;;37.78;26.20;;;;;;;;;;2074016;28;20208;-58
2021/11/20 03:21:16;;;;;;;37.95;27.40;;;;;;;;;;2076534;28;20260;-60
2021/11/20 03:22:25;;;;;;;37.15;26.27;;;;;;;;;;2082260;28;20631;-61
2021/11/20 03:23:27;;;;;;;35.20;25.80;;;;;;;;;;2081882;28;20168;-60
2021/11/20 03:24:28;;;;;;;32.92;23.88;;;;;;;;;;2082375;28;20585;-60
2021/11/20 03:25:30;;;;;;;33.38;25.58;;;;;;;;;;2082498;28;20659;-58
2021/11/20 03:26:32;;;;;;;39.28;24.42;;;;;;;;;;2070654;28;20212;-60
2021/11/20 03:27:35;;;;;;;40.58;26.73;;;;;;;;;;2075562;28;20169;-61
2021/11/20 03:28:35;;;;;;;35.97;26.50;;;;;;;;;;2075912;28;20169;-60
2021/11/20 03:29:36;;;;;;;32.78;24.33;;;;;;;;;;2075922;28;20189;-60
2021/11/20 03:30:37;;;;;;;39.10;26.48;;;;;;;;;;2074902;28;20172;-60
2021/11/20 03:31:38;;;;;;;36.67;27.55;;;;;;;;;;2067074;28;20185;-59
2021/11/20 03:32:39;;;;;;;38.28;26.23;;;;;;;;;;2083201;28;20172;-63
2021/11/20 03:33:42;;;;;;;36.97;25.77;;;;;;;;;;2074335;28;20181;-61
2021/11/20 03:34:43;;;;;;;34.20;27.00;;;;;;;;;;2074671;28;20204;-58
2021/11/20 03:35:46;;;;;;;38.03;26.13;;;;;;;;;;2074310;28;20177;-60
2021/11/20 03:36:55;;;;;;;41.25;27.63;;;;;;;;;;2075724;28;20713;-59
2021/11/20 03:38:01;;;;;;;37.53;28.45;;;;;;;;;;2082839;28;20153;-56
2021/11/20 03:39:05;;;;;;;36.78;26.98;;;;;;;;;;2082363;28;20285;-58
2021/11/20 03:40:07;;;;;;;40.28;28.48;;;;;;;;;;2081888;28;20195;-58
2021/11/20 03:41:08;;;;;;;38.22;27.00;;;;;;;;;;2073970;28;20173;-60
2021/11/20 03:42:09;;;;;;;35.47;27.45;;;;;;;;;;2072789;28;20246;-58
2021/11/20 03:43:13;;;;;;;36.90;27.98;;;;;;;;;;2073972;28;20723;-58
2021/11/20 03:44:14;;;;;;;38.65;28.13;;;;;;;;;;2075658;28;20171;-58
2021/11/20 03:45:18;;;;;;;37.33;27.23;;;;;;;;;;2081228;28;20176;-62
2021/11/20 03:46:19;;;;;;;37.08;28.17;;;;;;;;;;2073458;28;20703;-58
2021/11/20 03:47:19;;;;;;;33.95;24.35;;;;;;;;;;2076595;28;20222;-57
2021/11/20 03:48:20;;;;;;;37.00;26.75;;;;;;;;;;2081761;28;20239;-57
2021/11/20 03:49:20;;;;;;;36.42;28.40;;;;;;;;;;2081727;28;20216;-58
2021/11/20 03:50:21;;;;;;;38.92;29.63;;;;;;;;;;2073147;28;20547;-58
2021/11/20 03:51:21;;;;;;;39.05;28.40;;;;;;;;;;2075711;28;20673;-60
2021/11/20 03:52:22;;;;;;;37.45;28.02;;;;;;;;;;2079791;28;20190;-58
2021/11/20 03:53:23;;;;;;;36.97;28.17;;;;;;;;;;2072620;28;20177;-60
2021/11/20 03:54:24;;;;;;;37.03;29.77;;;;;;;;;;2073387;28;20558;-60
2021/11/20 03:55:26;;;;;;;37.17;30.15;;;;;;;;;;2081624;28;20176;-59
2021/11/20 03:56:27;;;;;;;37.55;28.80;;;;;;;;;;2079358;28;20204;-57
2021/11/20 03:57:27;;;;;;;41.55;30.30;;;;;;;;;;2075857;28;20181;-59
2021/11/20 03:58:28;;;;;;;38.70;29.80;;;;;;;;;;2081243;28;20271;-61
2021/11/20 03:59:29;;;;;;;39.92;31.25;;;;;;;;;;2081473;28;20168;-55
2021/11/20 04:00:32;;;;;;;41.42;30.67;;;;;;;;;;2073167;28;20696;-58
2021/11/20 04:01:33;;;;;;;36.80;30.10;;;;;;;;;;2073044;28;20645;-60
2021/11/20 04:02:34;;;;;;;40.63;28.80;;;;;;;;;;2073213;28;20177;-61
2021/11/20 04:03:35;;;;;;;41.45;31.10;;;;;;;;;;2073116;28;20230;-59
2021/11/20 04:04:37;;;;;;;41.10;30.42;;;;;;;;;;2065702;28;20197;-61
2021/11/20 04:05:37;;;;;;;37.92;28.90;;;;;;;;;;2063462;28;20629;-59
2021/11/20 04:06:38;;;;;;;38.03;28.73;;;;;;;;;;2067109;28;20885;-58
2021/11/20 04:07:41;;;;;;;37.83;29.35;;;;;;;;;;2073207;28;20173;-57
2021/11/20 04:08:43;;;;;;;39.05;29.08;;;;;;;;;;2073133;28;20218;-61
2021/11/20 04:09:50;;;;;;;40.22;30.88;;;;;;;;;;2073560;28;20177;-59
2021/11/20 04:10:52;;;;;;;41.60;30.65;;;;;;;;;;2080843;28;20176;-58
2021/11/20 04:11:53;;;;;;;43.38;31.85;;;;;;;;;;2072357;28;20211;-58
2021/11/20 04:12:54;;;;;;;37.35;30.70;;;;;;;;;;2064520;28;20181;-61
2021/11/20 04:13:55;;;;;;;41.70;32.65;;;;;;;;;;2067637;28;20280;-55
2021/11/20 04:14:56;;;;;;;38.45;29.58;;;;;;;;;;2081137;28;20222;-57
2021/11/20 04:15:57;;;;;;;39.83;31.23;;;;;;;;;;2079830;28;20180;-59
2021/11/20 04:16:57;;;;;;;36.15;29.42;;;;;;;;;;2081160;28;20757;-58
2021/11/20 04:17:58;;;;;;;35.90;29.33;;;;;;;;;;2080662;28;20172;-58
2021/11/20 04:18:59;;;;;;;37.00;29.25;;;;;;;;;;2071577;28;20180;-57
2021/11/20 04:20:00;;;;;;;36.33;30.52;;;;;;;;;;2080833;28;20207;-58
2021/11/20 04:21:00;;;;;;;39.10;30.90;;;;;;;;;;2089391;28;20320;-56
2021/11/20 04:22:03;;;;;;;38.03;29.88;;;;;;;;;;2080600;28;20322;-59
2021/11/20 04:23:05;;;;;;;37.63;29.02;;;;;;;;;;2073670;28;20196;-56
2021/11/20 04:24:07;;;;;;;35.00;29.70;;;;;;;;;;2080953;28;20735;-57
2021/11/20 04:25:27;;;;;;;39.28;31.83;;;;;;;;;;2081840;28;20188;-59
2021/11/20 04:26:32;;;;;;;40.50;30.55;;;;;;;;;;2080900;28;20571;-60
2021/11/20 04:27:32;;;;;;;35.42;29.60;;;;;;;;;;2080627;28;20176;-60
2021/11/20 04:28:50;;;;;;;38.30;31.10;;;;;;;;;;2075229;28;20167;-61
2021/11/20 04:29:59;;;;;;;37.78;31.05;;;;;;;;;;2082678;28;20340;-57
2021/11/20 04:31:01;;;;;;;38.63;29.98;;;;;;;;;;2081009;28;20252;-56
2021/11/20 04:32:04;;;;;;;37.35;29.67;;;;;;;;;;2072403;28;20181;-58
2021/11/20 04:33:06;;;;;;;35.63;30.23;;;;;;;;;;2073061;28;20192;-56
2021/11/20 04:34:06;;;;;;;36.50;28.88;;;;;;;;;;2072288;28;20216;-57
2021/11/20 04:35:07;;;;;;;35.78;30.27;;;;;;;;;;2073296;28;20185;-58
2021/11/20 04:36:08;;;;;;;36.53;29.17;;;;;;;;;;2081095;28;20172;-57
2021/11/20 04:37:10;;;;;;;41.40;29.10;;;;;;;;;;2081152;28;20188;-59
2021/11/20 04:38:11;;;;;;;38.78;29.65;;;;;;;;;;2081418;28;20251;-59
2021/11/20 04:39:13;;;;;;;33.58;28.90;;;;;;;;;;2072620;28;20211;-60
2021/11/20 04:40:14;;;;;;;37.00;30.40;;;;;;;;;;2072825;28;20303;-58
2021/11/20 04:41:14;;;;;;;33.58;28.90;;;;;;;;;;2081107;28;20211;-58
2021/11/20 04:42:16;;;;;;;40.40;29.13;;;;;;;;;;2073287;28;20169;-56
2021/11/20 04:43:16;;;;;;;35.40;26.70;;;;;;;;;;2065187;28;20690;-59
2021/11/20 04:44:17;;;;;;;37.67;30.15;;;;;;;;;;2081134;28;20168;-57
2021/11/20 04:45:19;;;;;;;33.70;28.20;;;;;;;;;;2072951;28;20230;-58
2021/11/20 04:46:21;;;;;;;38.20;30.35;;;;;;;;;;2072664;28;20192;-57
2021/11/20 04:47:22;;;;;;;34.15;28.55;;;;;;;;;;2080178;28;20187;-58
2021/11/20 04:48:23;;;;;;;35.22;30.48;;;;;;;;;;2072343;28;20204;-55
2021/11/20 04:49:29;;;;;;;35.33;27.42;;;;;;;;;;2073253;28;20259;-57
2021/11/20 04:50:30;;;;;;;35.13;28.20;;;;;;;;;;2074102;28;20632;-56
2021/11/20 04:51:31;;;;;;;39.17;30.10;;;;;;;;;;2073515;28;20176;-57
2021/11/20 04:52:32;;;;;;;35.50;26.48;;;;;;;;;;2072654;28;20184;-56
2021/11/20 04:53:34;;;;;;;35.00;29.73;;;;;;;;;;2078070;28;20165;-58
2021/11/20 04:54:38;;;;;;;34.92;29.23;;;;;;;;;;2072405;28;20176;-59
2021/11/20 04:55:39;;;;;;;34.80;28.15;;;;;;;;;;2077280;28;20563;-59
2021/11/20 04:56:44;;;;;;;34.40;28.02;;;;;;;;;;2080789;28;20552;-60
2021/11/20 04:57:46;;;;;;;33.42;27.63;;;;;;;;;;2080659;28;20554;-59
2021/11/20 04:58:47;;;;;;;35.78;28.60;;;;;;;;;;2073305;28;20180;-57
2021/11/20 04:59:49;;;;;;;30.17;26.92;;;;;;;;;;2065098;28;20233;-57
2021/11/20 05:00:55;;;;;;;33.72;29.20;;;;;;;;;;2068392;28;20196;-58
2021/11/20 05:02:00;;;;;;;34.88;27.70;;;;;;;;;;2076786;28;20264;-61
2021/11/20 05:03:05;;;;;;;31.88;27.25;;;;;;;;;;2076628;28;20179;-56
2021/11/20 05:04:09;;;;;;;33.80;27.30;;;;;;;;;;2080664;28;20176;-57
2021/11/20 05:05:14;;;;;;;32.88;26.70;;;;;;;;;;2072772;28;20200;-57
2021/11/20 05:06:15;;;;;;;32.13;26.77;;;;;;;;;;2073472;28;20188;-59
2021/11/20 05:07:16;;;;;;;31.65;28.20;;;;;;;;;;2073043;28;20179;-60
2021/11/20 05:08:17;;;;;;;31.80;25.60;;;;;;;;;;2073096;28;20568;-60
2021/11/20 05:09:18;;;;;;;32.08;26.90;;;;;;;;;;2073116;28;20571;-57
2021/11/20 05:10:24;;;;;;;31.58;26.92;;;;;;;;;;2065513;28;20358;-55
2021/11/20 05:11:26;;;;;;;30.20;25.55;;;;;;;;;;2064620;28;20179;-59
2021/11/20 05:12:28;;;;;;;32.25;24.90;;;;;;;;;;2080716;28;20180;-58
2021/11/20 05:13:38;;;;;;;31.42;28.02;;;;;;;;;;2072247;28;20161;-54
2021/11/20 05:14:38;;;;;;;33.92;27.67;;;;;;;;;;2077197;28;20208;-59
2021/11/20 05:15:41;;;;;;;29.52;25.08;;;;;;;;;;2076830;28;20173;-56
2021/11/20 05:16:42;;;;;;;32.88;25.85;;;;;;;;;;2077024;28;20556;-56
2021/11/20 05:17:44;;;;;;;32.05;28.02;;;;;;;;;;2072501;28;20205;-58
2021/11/20 05:18:52;;;;;;;39.17;28.50;;;;;;;;;;2073243;28;20169;-59
2021/11/20 05:20:00;;;;;;;35.85;27.58;;;;;;;;;;2076524;28;20271;-60
2021/11/20 05:21:01;;;;;;;33.40;27.55;;;;;;;;;;2077103;28;20199;-58
2021/11/20 05:22:05;;;;;;;34.30;27.30;;;;;;;;;;2072451;28;20619;-57
2021/11/20 05:23:07;;;;;;;31.92;27.10;;;;;;;;;;2073002;28;20532;-59
2021/11/20 05:24:09;;;;;;;35.10;26.00;;;;;;;;;;2072325;28;20676;-61
2021/11/20 05:25:10;;;;;;;32.15;27.15;;;;;;;;;;2072118;28;20261;-59
2021/11/20 05:26:12;;;;;;;32.28;26.83;;;;;;;;;;2080406;28;20218;-58
2021/11/20 05:27:14;;;;;;;32.10;26.02;;;;;;;;;;2072149;28;20204;-60
2021/11/20 05:28:15;;;;;;;32.63;27.52;;;;;;;;;;2064274;28;20180;-58
2021/11/20 05:30:38;;;;;;;32.35;26.63;;;;;;;;;;2070944;28;20169;-61
2021/11/20 05:31:38;;;;;;;28.25;24.75;;;;;;;;;;2071850;28;20187;-60
2021/11/20 05:32:39;;;;;;;35.22;26.75;;;;;;;;;;2072352;28;20233;-59
2021/11/20 05:33:42;;;;;;;31.38;27.20;;;;;;;;;;2056133;28;20267;-60
2021/11/20 05:34:45;;;;;;;33.38;27.55;;;;;;;;;;2072628;28;20719;-59
2021/11/20 05:35:48;;;;;;;32.35;27.38;;;;;;;;;;2075867;28;20312;-59
2021/11/20 05:36:50;;;;;;;29.52;25.88;;;;;;;;;;2063804;28;20307;-59
2021/11/20 05:37:54;;;;;;;34.67;26.33;;;;;;;;;;2068915;28;20188;-61
2021/11/20 05:38:58;;;;;;;30.75;27.35;;;;;;;;;;2056349;28;20244;-61
2021/11/20 05:39:59;;;;;;;33.63;25.92;;;;;;;;;;2062952;28;20209;-58
2021/11/20 05:41:01;;;;;;;29.50;25.48;;;;;;;;;;2072779;28;20222;-59
2021/11/20 05:42:13;;;;;;;30.73;25.20;;;;;;;;;;2073828;28;20639;-59
2021/11/20 05:43:16;;;;;;;34.83;25.75;;;;;;;;;;2072418;28;20213;-58
2021/11/20 05:44:16;;;;;;;34.53;27.90;;;;;;;;;;2064093;28;20205;-60
2021/11/20 05:45:24;;;;;;;32.13;28.00;;;;;;;;;;2068384;28;20182;-59
2021/11/20 05:46:25;;;;;;;33.67;26.17;;;;;;;;;;2077486;28;20199;-59
2021/11/20 05:47:28;;;;;;;32.30;26.08;;;;;;;;;;2072019;28;20173;-58
2021/11/20 05:48:29;;;;;;;33.08;27.02;;;;;;;;;;2072503;28;20198;-58
2021/11/20 05:49:34;;;;;;;29.77;26.52;;;;;;;;;;2072509;28;20214;-58
2021/11/20 05:50:39;;;;;;;33.78;27.05;;;;;;;;;;2070280;28;20169;-58
2021/11/20 05:51:40;;;;;;;32.50;27.50;;;;;;;;;;2071856;28;20168;-58
2021/11/20 05:52:45;;;;;;;31.70;27.30;;;;;;;;;;2071845;28;20174;-58
2021/11/20 05:53:48;;;;;;;32.03;26.20;;;;;;;;;;2081165;28;20180;-58
2021/11/20 05:54:51;;;;;;;34.45;27.73;;;;;;;;;;2079634;28;20585;-58
2021/11/20 05:56:04;;;;;;;30.55;26.85;;;;;;;;;;2067327;28;20213;-58
2021/11/20 05:57:14;;;;;;;33.67;27.65;;;;;;;;;;2074347;28;20215;-58
2021/11/20 05:58:15;;;;;;;29.67;25.73;;;;;;;;;;2077520;28;20235;-57
2021/11/20 05:59:15;;;;;;;34.50;26.73;;;;;;;;;;2078655;28;20271;-58
2021/11/20 06:00:18;;;;;;;33.80;28.58;;;;;;;;;;2079449;28;20199;-59
2021/11/20 06:01:24;;;;;;;30.60;26.20;;;;;;;;;;2082389;28;20164;-56
2021/11/20 06:02:24;;;;;;;30.42;26.77;;;;;;;;;;2083128;28;20247;-57
2021/11/20 06:03:29;;;;;;;34.83;27.77;;;;;;;;;;2075034;28;20176;-57
2021/11/20 06:04:31;;;;;;;31.33;27.90;;;;;;;;;;2073254;28;20183;-57
2021/11/20 06:05:34;;;;;;;33.92;26.10;;;;;;;;;;2072934;28;20230;-57
2021/11/20 06:06:35;;;;;;;31.25;25.73;;;;;;;;;;2092379;23;20204;-61
2021/11/20 06:07:36;;;;;;;31.00;26.73;;;;;;;;;;2074490;28;20271;-61
2021/11/20 06:08:36;;;;;;;36.13;27.60;;;;;;;;;;2080086;28;20196;-62
2021/11/20 06:09:39;;;;;;;33.42;27.27;;;;;;;;;;2087849;28;20163;-62
2021/11/20 06:10:41;;;;;;;32.85;26.83;;;;;;;;;;2088352;28;20647;-62
2021/11/20 06:11:45;;;;;;;29.90;24.90;;;;;;;;;;2071862;28;20315;-60
2021/11/20 06:12:46;;;;;;;32.75;26.70;;;;;;;;;;2077852;28;20248;-65
2021/11/20 06:13:46;;;;;;;29.30;24.83;;;;;;;;;;2086440;28;20174;-63
2021/11/20 06:15:01;;;;;;;29.33;24.15;;;;;;;;;;2080540;28;20168;-62